Time;durP1;ratioP1;P1;durP2;ratioP2;P2;SDS_P1;SDS_P2;PMS_P1;PMS_P2;Temp;Humidity;BMP_temperature;BMP_pressure;BME280_temperature;BME280_humidity;BME280_pressure;Samples;Min_cycle;Max_cycle;Signal;HPM_P1;HPM_P2
2022/04/24 00:01:50;;;;;;;6.03;5.50;;;22.40;35.50;;;;;;5165000;27;20047;-43
2022/04/24 00:04:15;;;;;;;8.85;6.88;;;22.40;35.50;;;;;;5145219;27;20014;-40
2022/04/24 00:06:41;;;;;;;6.82;6.03;;;22.40;35.50;;;;;;5164128;27;20034;-40
2022/04/24 00:09:07;;;;;;;7.03;6.32;;;22.40;35.50;;;;;;5165382;27;20055;-45
2022/04/24 00:11:34;;;;;;;6.93;6.20;;;22.40;35.50;;;;;;5147799;27;20025;-45
2022/04/24 00:14:07;;;;;;;6.38;5.78;;;22.30;35.50;;;;;;5147639;27;20019;-41
2022/04/24 00:16:33;;;;;;;6.30;5.70;;;22.30;35.50;;;;;;5147897;27;20075;-41
2022/04/24 00:18:58;;;;;;;7.13;6.43;;;22.30;35.50;;;;;;5165209;27;20052;-42
2022/04/24 00:21:25;;;;;;;7.00;6.30;;;22.30;35.50;;;;;;5164455;27;20106;-44
2022/04/24 00:23:50;;;;;;;6.45;5.85;;;22.40;35.60;;;;;;5164424;27;20130;-43
2022/04/24 00:26:16;;;;;;;6.30;5.70;;;22.30;35.50;;;;;;5109883;27;20460;-41
2022/04/24 00:28:43;;;;;;;6.43;5.82;;;22.30;35.50;;;;;;5162667;27;20041;-42
2022/04/24 00:31:09;;;;;;;6.80;6.05;;;22.30;35.50;;;;;;5162237;27;20010;-42
2022/04/24 00:33:35;;;;;;;6.68;5.90;;;22.30;35.50;;;;;;5162203;27;20038;-42
2022/04/24 00:36:00;;;;;;;6.70;6.00;;;22.30;35.60;;;;;;5163015;27;20378;-43
2022/04/24 00:38:26;;;;;;;6.88;6.18;;;22.30;35.50;;;;;;5144074;27;20022;-40
2022/04/24 00:40:54;;;;;;;6.70;6.00;;;22.30;35.50;;;;;;5162819;27;20027;-41
2022/04/24 00:43:20;;;;;;;6.68;5.97;;;22.30;35.50;;;;;;5162320;27;20138;-42
2022/04/24 00:45:45;;;;;;;6.53;5.93;;;22.30;35.50;;;;;;5143514;27;20035;-46
2022/04/24 00:48:12;;;;;;;6.47;5.88;;;22.30;35.50;;;;;;5143365;27;20023;-44
2022/04/24 00:50:39;;;;;;;6.28;5.68;;;22.30;35.50;;;;;;5143044;27;20049;-43
2022/04/24 00:53:06;;;;;;;6.50;5.88;;;22.30;35.40;;;;;;5142013;27;20130;-44
2022/04/24 00:55:31;;;;;;;6.80;6.10;;;22.30;35.30;;;;;;5143251;27;20153;-41
2022/04/24 00:57:57;;;;;;;6.68;5.95;;;22.30;35.30;;;;;;5161257;27;20544;-39
2022/04/24 01:00:23;;;;;;;6.20;5.60;;;22.20;35.30;;;;;;5125946;27;20025;-42
2022/04/24 01:02:49;;;;;;;6.22;5.57;;;22.30;35.40;;;;;;5161067;27;20022;-41
2022/04/24 01:05:18;;;;;;;6.35;5.63;;;22.30;35.30;;;;;;5142835;27;20101;-47
2022/04/24 01:07:44;;;;;;;6.55;5.80;;;22.30;35.30;;;;;;5161291;27;20014;-42
2022/04/24 01:10:10;;;;;;;6.07;5.47;;;22.20;35.20;;;;;;5160675;27;20015;-43
2022/04/24 01:12:36;;;;;;;6.32;5.72;;;22.20;35.20;;;;;;5157739;27;20365;-39
2022/04/24 01:15:03;;;;;;;6.38;5.78;;;22.20;35.20;;;;;;5157043;27;20469;-41
2022/04/24 01:17:28;;;;;;;6.47;5.80;;;22.20;35.20;;;;;;5157112;27;20019;-47
2022/04/24 01:19:55;;;;;;;6.30;5.70;;;22.20;35.10;;;;;;5156711;27;20034;-43
2022/04/24 01:22:20;;;;;;;6.30;5.70;;;22.20;35.00;;;;;;5137825;27;20031;-46
2022/04/24 01:24:47;;;;;;;5.72;5.15;;;22.30;35.10;;;;;;5157169;27;20007;-44
2022/04/24 01:27:13;;;;;;;5.80;5.20;;;22.30;35.00;;;;;;5161289;27;20022;-44
2022/04/24 01:29:40;;;;;;;5.63;5.13;;;22.20;35.00;;;;;;5161361;27;20010;-49
2022/04/24 01:32:08;;;;;;;5.85;5.25;;;22.30;35.10;;;;;;5160959;27;20464;-46
2022/04/24 01:34:34;;;;;;;5.82;5.07;;;22.30;35.00;;;;;;5160721;27;20027;-48
2022/04/24 01:37:00;;;;;;;5.93;5.35;;;22.20;34.90;;;;;;5160726;27;20053;-46
2022/04/24 01:39:26;;;;;;;6.03;5.43;;;22.30;34.90;;;;;;5125349;27;20075;-42
2022/04/24 01:41:52;;;;;;;7.10;5.22;;;22.20;34.80;;;;;;5159593;27;20380;-48
2022/04/24 01:44:18;;;;;;;5.65;5.10;;;22.20;34.80;;;;;;5140829;27;20049;-45
2022/04/24 01:46:44;;;;;;;5.32;4.82;;;22.20;34.80;;;;;;5159339;27;20011;-44
2022/04/24 01:49:11;;;;;;;5.63;4.82;;;22.20;34.80;;;;;;5159636;27;20476;-45
2022/04/24 01:51:37;;;;;;;5.82;5.05;;;22.20;34.60;;;;;;5160055;27;20010;-51
2022/04/24 01:54:03;;;;;;;9.25;5.50;;;22.20;34.60;;;;;;5124654;27;20011;-48
2022/04/24 01:56:30;;;;;;;5.57;5.07;;;22.20;34.70;;;;;;5143027;27;20068;-48
2022/04/24 01:58:56;;;;;;;5.70;5.20;;;22.20;34.60;;;;;;5161577;27;20021;-45
2022/04/24 02:01:22;;;;;;;5.80;5.20;;;22.20;34.60;;;;;;5160861;27;20019;-43
2022/04/24 02:03:48;;;;;;;4.88;4.47;;;22.20;34.50;;;;;;5142022;27;20092;-47
2022/04/24 02:06:13;;;;;;;6.28;4.97;;;22.20;34.50;;;;;;5142668;27;20498;-40
2022/04/24 02:08:39;;;;;;;5.30;4.78;;;22.20;34.40;;;;;;5141370;27;20055;-42
2022/04/24 02:11:06;;;;;;;5.20;4.70;;;22.10;34.40;;;;;;5159141;27;20015;-42
2022/04/24 02:13:32;;;;;;;5.93;4.68;;;22.20;34.40;;;;;;5160243;27;20090;-43
2022/04/24 02:15:58;;;;;;;5.15;4.65;;;22.10;34.40;;;;;;5160054;27;20038;-40
2022/04/24 02:18:25;;;;;;;5.07;4.57;;;22.10;34.30;;;;;;5160080;27;20015;-44
2022/04/24 02:20:51;;;;;;;4.80;4.30;;;22.10;34.30;;;;;;5160368;27;20065;-42
2022/04/24 02:23:17;;;;;;;5.45;4.68;;;22.10;34.20;;;;;;5141665;27;20043;-41
2022/04/24 02:25:43;;;;;;;5.18;4.30;;;22.10;34.20;;;;;;5160515;27;20366;-45
2022/04/24 02:28:08;;;;;;;4.40;3.97;;;22.10;34.20;;;;;;5155789;27;20019;-39
2022/04/24 02:30:35;;;;;;;4.68;4.20;;;22.10;34.20;;;;;;5155842;27;20031;-39
2022/04/24 02:33:01;;;;;;;4.65;4.25;;;22.10;34.20;;;;;;5155636;27;20491;-39
2022/04/24 02:35:27;;;;;;;4.53;3.97;;;22.10;34.10;;;;;;5137536;27;20018;-38
2022/04/24 02:37:53;;;;;;;4.55;4.15;;;22.10;34.10;;;;;;5155710;27;20029;-39
2022/04/24 02:40:21;;;;;;;4.50;4.10;;;22.10;34.10;;;;;;5140910;27;20015;-43
2022/04/24 02:42:48;;;;;;;4.57;4.00;;;22.10;34.00;;;;;;5161374;27;20025;-39
2022/04/24 02:45:14;;;;;;;4.30;3.90;;;22.10;34.00;;;;;;5161343;27;20022;-39
2022/04/24 02:47:40;;;;;;;4.82;4.15;;;22.10;34.00;;;;;;5161237;27;20011;-41
2022/04/24 02:50:07;;;;;;;4.60;4.20;;;22.10;33.90;;;;;;5160660;27;20047;-39
2022/04/24 02:52:33;;;;;;;4.70;4.20;;;22.10;33.90;;;;;;5161171;27;20046;-41
2022/04/24 02:55:00;;;;;;;4.93;3.72;;;22.10;33.90;;;;;;5142779;27;20023;-39
2022/04/24 02:57:28;;;;;;;4.43;3.63;;;22.10;33.90;;;;;;5158647;27;20014;-43
2022/04/24 02:59:55;;;;;;;4.57;4.18;;;22.10;33.80;;;;;;5140394;27;20098;-41
2022/04/24 03:02:21;;;;;;;4.18;3.78;;;22.10;34.10;;;;;;5158353;27;20091;-39
2022/04/24 03:04:48;;;;;;;5.20;4.10;;;22.10;33.80;;;;;;5140132;27;20025;-40
2022/04/24 03:07:14;;;;;;;4.57;4.10;;;22.10;33.80;;;;;;5157763;27;20043;-42
2022/04/24 03:09:41;;;;;;;4.07;3.55;;;22.10;33.80;;;;;;5158969;27;20046;-41
2022/04/24 03:12:09;;;;;;;3.90;3.53;;;22.00;33.70;;;;;;5142448;27;20023;-44
2022/04/24 03:14:36;;;;;;;4.28;3.85;;;22.00;33.70;;;;;;5141922;27;20081;-38
2022/04/24 03:17:02;;;;;;;4.82;3.83;;;22.00;33.70;;;;;;5163941;27;20007;-41
2022/04/24 03:19:28;;;;;;;4.88;3.47;;;22.10;33.70;;;;;;5165044;27;20495;-40
2022/04/24 03:21:54;;;;;;;4.30;3.55;;;22.00;33.70;;;;;;5164837;27;20511;-39
2022/04/24 03:24:20;;;;;;;3.80;3.47;;;22.00;33.70;;;;;;5164790;27;20019;-39
2022/04/24 03:26:47;;;;;;;4.28;3.88;;;22.00;33.70;;;;;;5164901;27;20007;-42
2022/04/24 03:29:13;;;;;;;4.07;3.60;;;22.00;33.70;;;;;;5165680;27;20422;-42
2022/04/24 03:31:40;;;;;;;4.15;3.75;;;22.00;33.60;;;;;;5165926;27;20372;-44
2022/04/24 03:34:06;;;;;;;3.63;3.30;;;22.00;33.60;;;;;;5165725;27;20098;-41
2022/04/24 03:36:32;;;;;;;3.60;3.30;;;22.00;33.60;;;;;;5165753;27;20121;-40
2022/04/24 03:38:58;;;;;;;3.50;3.20;;;22.00;33.60;;;;;;5165446;27;20014;-41
2022/04/24 03:41:24;;;;;;;4.00;3.60;;;22.00;33.60;;;;;;5164756;27;20052;-42
2022/04/24 03:43:51;;;;;;;3.95;3.47;;;22.00;33.60;;;;;;5145943;27;20030;-44
2022/04/24 03:46:18;;;;;;;4.20;3.25;;;22.00;33.60;;;;;;5163953;27;20521;-43
2022/04/24 03:48:44;;;;;;;4.65;3.22;;;22.00;33.60;;;;;;5163899;27;20011;-42
2022/04/24 03:51:11;;;;;;;4.03;3.10;;;22.00;33.60;;;;;;5164336;27;20018;-40
2022/04/24 03:53:37;;;;;;;3.85;3.25;;;22.00;33.60;;;;;;5163623;27;20473;-42
2022/04/24 03:56:04;;;;;;;3.17;2.90;;;22.00;33.50;;;;;;5141667;27;20102;-40
2022/04/24 03:58:30;;;;;;;4.30;3.20;;;22.00;33.50;;;;;;5159984;27;20015;-40
2022/04/24 04:00:56;;;;;;;3.97;3.58;;;22.00;33.50;;;;;;5159736;27;20022;-44
2022/04/24 04:03:22;;;;;;;4.05;3.53;;;22.00;33.50;;;;;;5140747;27;20023;-42
2022/04/24 04:05:49;;;;;;;4.35;3.47;;;21.90;33.50;;;;;;5160069;27;20015;-44
2022/04/24 04:08:16;;;;;;;3.53;3.10;;;22.00;33.50;;;;;;5159692;27;20011;-43
2022/04/24 04:10:43;;;;;;;4.80;3.20;;;22.00;33.60;;;;;;5161467;27;20015;-42
2022/04/24 04:13:10;;;;;;;4.07;3.00;;;22.00;33.50;;;;;;5164100;27;20026;-46
2022/04/24 04:15:36;;;;;;;3.30;3.00;;;21.90;33.40;;;;;;5163423;27;20017;-45
2022/04/24 04:18:02;;;;;;;3.78;3.00;;;21.90;33.40;;;;;;5163658;27;20413;-40
2022/04/24 04:20:29;;;;;;;4.45;3.05;;;21.90;33.40;;;;;;5163338;27;20572;-45
2022/04/24 04:22:55;;;;;;;3.72;3.00;;;22.00;33.40;;;;;;5162775;27;20087;-42
2022/04/24 04:25:24;;;;;;;4.25;3.38;;;21.90;33.30;;;;;;5160585;27;20469;-39
2022/04/24 04:27:52;;;;;;;3.58;3.28;;;21.90;33.30;;;;;;5158758;27;20068;-40
2022/04/24 04:30:18;;;;;;;3.17;2.83;;;21.90;33.40;;;;;;5158722;27;20007;-40
2022/04/24 04:32:45;;;;;;;3.40;3.10;;;21.90;33.30;;;;;;5158683;27;20026;-39
2022/04/24 04:35:11;;;;;;;3.05;2.72;;;21.90;33.30;;;;;;5158429;27;20018;-40
2022/04/24 04:37:39;;;;;;;3.35;2.85;;;21.90;33.20;;;;;;5158442;27;20029;-41
2022/04/24 04:40:06;;;;;;;3.30;3.00;;;21.90;33.30;;;;;;5160082;27;20021;-49
2022/04/24 04:42:32;;;;;;;3.42;3.10;;;21.90;33.30;;;;;;5162471;27;20030;-45
2022/04/24 04:45:00;;;;;;;3.88;3.47;;;21.90;33.30;;;;;;5162048;27;20131;-47
2022/04/24 04:47:27;;;;;;;3.20;2.90;;;21.90;33.30;;;;;;5162253;27;20011;-45
2022/04/24 04:49:54;;;;;;;3.42;2.95;;;21.90;33.30;;;;;;5162160;27;20067;-44
2022/04/24 04:52:20;;;;;;;3.40;2.78;;;21.90;33.20;;;;;;5160615;27;20014;-45
2022/04/24 04:54:49;;;;;;;3.20;2.90;;;21.90;33.20;;;;;;5160217;27;20030;-50
2022/04/24 04:57:15;;;;;;;3.20;2.90;;;21.90;33.20;;;;;;5159045;27;20019;-45
2022/04/24 04:59:41;;;;;;;3.33;2.90;;;21.90;33.30;;;;;;5159369;27;20487;-44
2022/04/24 05:02:07;;;;;;;3.25;2.95;;;21.90;33.10;;;;;;5159201;27;20027;-42
2022/04/24 05:04:32;;;;;;;3.10;2.75;;;21.90;33.20;;;;;;5159264;27;20018;-43
2022/04/24 05:06:59;;;;;;;3.22;2.55;;;21.90;33.20;;;;;;5159123;27;20044;-42
2022/04/24 05:09:26;;;;;;;2.80;2.60;;;21.90;33.20;;;;;;5142355;27;20011;-43
2022/04/24 05:11:53;;;;;;;3.38;3.08;;;21.80;33.10;;;;;;5161369;27;20469;-44
2022/04/24 05:14:19;;;;;;;3.10;2.80;;;21.90;33.20;;;;;;5142341;27;20007;-39
2022/04/24 05:16:45;;;;;;;3.30;3.00;;;21.90;33.10;;;;;;5159597;27;20023;-44
2022/04/24 05:19:11;;;;;;;2.90;2.70;;;21.90;33.20;;;;;;5141392;27;20042;-41
2022/04/24 05:21:37;;;;;;;3.42;3.05;;;21.80;33.10;;;;;;5140817;27;20532;-44
2022/04/24 05:24:03;;;;;;;3.17;2.88;;;21.80;33.10;;;;;;5159130;27;20373;-45
2022/04/24 05:26:31;;;;;;;3.30;2.90;;;21.80;33.00;;;;;;5159693;27;20018;-41
2022/04/24 05:28:57;;;;;;;3.80;2.83;;;21.80;33.10;;;;;;5160699;27;20011;-40
2022/04/24 05:31:23;;;;;;;3.95;3.10;;;21.80;33.00;;;;;;5125212;27;20015;-39
2022/04/24 05:33:49;;;;;;;4.15;3.10;;;21.80;33.10;;;;;;5161270;27;20022;-39
2022/04/24 05:36:16;;;;;;;3.35;2.58;;;21.80;33.00;;;;;;5142313;27;20035;-39
2022/04/24 05:38:41;;;;;;;2.90;2.60;;;21.80;33.10;;;;;;5158744;27;20038;-42
2022/04/24 05:41:07;;;;;;;3.10;2.80;;;21.80;33.00;;;;;;5159633;27;20465;-39
2022/04/24 05:43:35;;;;;;;3.15;2.83;;;21.80;32.90;;;;;;5159465;27;20023;-44
2022/04/24 05:46:00;;;;;;;3.70;2.72;;;21.80;33.00;;;;;;5159018;27;20536;-40
2022/04/24 05:48:26;;;;;;;3.42;2.90;;;21.80;32.90;;;;;;5123607;27;20019;-42
2022/04/24 05:50:53;;;;;;;2.60;2.40;;;21.80;32.90;;;;;;5124276;27;20033;-42
2022/04/24 05:53:18;;;;;;;4.07;2.85;;;21.80;32.90;;;;;;5141976;27;20472;-40
2022/04/24 05:55:44;;;;;;;2.88;2.67;;;21.80;32.80;;;;;;5159669;27;20536;-40
2022/04/24 05:58:11;;;;;;;3.30;3.00;;;21.90;32.90;;;;;;5160418;27;20106;-41
2022/04/24 06:00:37;;;;;;;3.45;3.05;;;21.90;32.90;;;;;;5160290;27;20110;-42
2022/04/24 06:03:03;;;;;;;3.05;2.75;;;21.90;32.80;;;;;;5158843;27;20098;-40
2022/04/24 06:05:29;;;;;;;2.88;2.67;;;21.90;32.80;;;;;;5159538;27;20050;-43
2022/04/24 06:07:55;;;;;;;2.95;2.75;;;21.90;32.70;;;;;;5161225;27;20023;-41
2022/04/24 06:10:22;;;;;;;3.15;2.85;;;22.10;32.50;;;;;;5159744;27;20011;-42
2022/04/24 06:12:49;;;;;;;2.92;2.70;;;22.20;32.30;;;;;;5159412;27;20026;-43
2022/04/24 06:15:15;;;;;;;2.90;2.70;;;22.30;32.20;;;;;;5158783;27;20029;-40
2022/04/24 06:17:50;;;;;;;3.53;2.80;;;22.40;32.00;;;;;;5159236;27;20018;-42
2022/04/24 06:20:17;;;;;;;3.65;3.03;;;22.70;31.80;;;;;;5158325;27;20046;-44
2022/04/24 06:22:44;;;;;;;3.28;2.97;;;22.90;31.40;;;;;;5140634;27;20473;-39
2022/04/24 06:25:17;;;;;;;3.10;2.80;;;23.10;31.20;;;;;;5158643;27;20014;-39
2022/04/24 06:27:44;;;;;;;2.85;2.65;;;23.30;31.00;;;;;;5138057;27;20021;-39
2022/04/24 06:30:11;;;;;;;2.85;2.55;;;23.40;30.80;;;;;;5156942;27;20548;-40
2022/04/24 06:32:41;;;;;;;2.83;2.63;;;23.60;30.50;;;;;;5138949;27;20110;-39
2022/04/24 06:35:09;;;;;;;2.88;2.67;;;23.70;30.40;;;;;;5138524;27;20094;-41
2022/04/24 06:37:38;;;;;;;2.97;2.47;;;23.80;30.10;;;;;;5157011;27;20014;-40
2022/04/24 06:40:06;;;;;;;2.92;2.70;;;23.90;30.00;;;;;;5157765;27;20025;-43
2022/04/24 06:42:32;;;;;;;2.95;2.75;;;24.10;29.90;;;;;;5159319;27;20030;-46
2022/04/24 06:44:58;;;;;;;2.92;2.63;;;24.20;29.80;;;;;;5159354;27;20022;-42
2022/04/24 06:47:27;;;;;;;3.20;2.90;;;24.30;29.60;;;;;;5160000;27;20015;-44
2022/04/24 06:49:53;;;;;;;2.67;2.40;;;24.40;29.50;;;;;;5142328;27;20038;-43
2022/04/24 06:52:20;;;;;;;2.83;2.55;;;24.50;29.40;;;;;;5164342;27;20027;-45
2022/04/24 06:54:46;;;;;;;2.60;2.40;;;24.60;29.20;;;;;;5129090;27;20023;-43
2022/04/24 06:57:11;;;;;;;2.95;2.65;;;24.70;29.20;;;;;;5161254;27;20018;-43
2022/04/24 06:59:37;;;;;;;2.72;2.53;;;24.90;29.00;;;;;;5161653;27;20472;-40
2022/04/24 07:02:03;;;;;;;2.90;2.60;;;24.90;28.90;;;;;;5125079;27;20034;-39
2022/04/24 07:04:30;;;;;;;2.97;2.53;;;25.00;28.80;;;;;;5143042;27;20015;-40
2022/04/24 07:06:55;;;;;;;2.60;2.40;;;25.10;28.70;;;;;;5143276;27;20015;-42
2022/04/24 07:09:23;;;;;;;2.60;2.40;;;25.20;28.60;;;;;;5161166;27;20077;-39
2022/04/24 07:11:49;;;;;;;3.72;2.38;;;25.30;28.50;;;;;;5163982;27;20007;-46
2022/04/24 07:14:16;;;;;;;2.58;2.38;;;25.40;28.40;;;;;;5163565;27;20006;-40
2022/04/24 07:16:42;;;;;;;3.17;2.67;;;25.50;28.30;;;;;;5162970;27;20015;-41
2022/04/24 07:19:09;;;;;;;2.70;2.50;;;25.50;28.30;;;;;;5145014;27;20019;-40
2022/04/24 07:21:36;;;;;;;2.55;2.35;;;25.60;28.20;;;;;;5162960;27;20038;-41
2022/04/24 07:24:03;;;;;;;2.60;2.40;;;25.70;28.20;;;;;;5163067;27;20047;-40
2022/04/24 07:26:29;;;;;;;3.97;2.55;;;25.80;28.10;;;;;;5162355;27;20102;-42
2022/04/24 07:28:55;;;;;;;2.90;2.70;;;25.80;28.00;;;;;;5162596;27;20014;-40
2022/04/24 07:31:21;;;;;;;2.85;2.55;;;25.90;28.00;;;;;;5163436;27;20011;-41
2022/04/24 07:33:49;;;;;;;3.63;2.70;;;26.00;28.00;;;;;;5163071;27;20030;-42
2022/04/24 07:36:15;;;;;;;2.72;2.53;;;26.00;27.90;;;;;;5163079;27;20023;-41
2022/04/24 07:38:42;;;;;;;2.78;2.58;;;26.10;27.80;;;;;;5163495;27;20011;-41
2022/04/24 07:41:07;;;;;;;3.00;2.70;;;26.20;27.80;;;;;;5164356;27;20023;-40
2022/04/24 07:43:33;;;;;;;2.83;2.60;;;26.20;27.70;;;;;;5161382;27;20018;-41
2022/04/24 07:46:00;;;;;;;3.28;2.60;;;26.30;27.60;;;;;;5161502;27;20476;-38
2022/04/24 07:48:27;;;;;;;2.50;2.30;;;26.30;27.60;;;;;;5162413;27;20015;-41
2022/04/24 07:50:53;;;;;;;3.22;2.80;;;26.40;27.60;;;;;;5163278;27;20045;-39
2022/04/24 07:53:20;;;;;;;3.00;2.70;;;26.40;27.50;;;;;;5161908;27;20026;-41
2022/04/24 07:55:47;;;;;;;3.00;2.70;;;26.50;27.50;;;;;;5163216;27;20023;-44
2022/04/24 07:58:14;;;;;;;2.70;2.50;;;26.50;27.50;;;;;;5164380;27;20019;-41
2022/04/24 08:00:40;;;;;;;3.30;2.85;;;26.60;27.50;;;;;;5127556;27;20041;-45
2022/04/24 08:03:07;;;;;;;3.15;2.85;;;26.60;27.40;;;;;;5143875;27;20075;-43
2022/04/24 08:05:34;;;;;;;3.17;2.80;;;26.60;27.40;;;;;;5145315;27;20476;-42
2022/04/24 08:08:01;;;;;;;3.35;2.38;;;26.70;27.40;;;;;;5161950;27;20066;-41
2022/04/24 08:10:30;;;;;;;2.95;2.70;;;26.70;27.30;;;;;;5144845;27;20022;-41
2022/04/24 08:12:56;;;;;;;3.35;2.65;;;26.80;27.30;;;;;;5141952;27;20022;-40
2022/04/24 08:15:22;;;;;;;2.97;2.67;;;26.80;27.30;;;;;;5140698;27;20015;-39
2022/04/24 08:17:48;;;;;;;2.53;2.33;;;26.80;27.30;;;;;;5159420;27;20030;-41
2022/04/24 08:20:14;;;;;;;3.55;2.60;;;26.80;27.30;;;;;;5116385;28;20043;-45
2022/04/24 08:22:50;;;;;;;2.75;2.50;;;26.80;27.30;;;;;;5117559;28;20100;-46
2022/04/24 08:25:18;;;;;;;2.90;2.70;;;26.80;27.30;;;;;;5119152;28;20016;-42
2022/04/24 08:27:44;;;;;;;2.58;2.38;;;26.80;27.30;;;;;;5121796;28;20039;-44
2022/04/24 08:30:10;;;;;;;2.42;2.22;;;26.90;27.30;;;;;;5122439;28;20016;-43
2022/04/24 08:32:37;;;;;;;2.90;2.60;;;26.90;27.30;;;;;;5121364;28;20023;-45
2022/04/24 08:35:05;;;;;;;3.00;2.70;;;27.00;27.30;;;;;;5121521;28;20012;-43
2022/04/24 08:37:30;;;;;;;2.58;2.38;;;27.00;27.20;;;;;;5120674;28;20039;-43
2022/04/24 08:39:57;;;;;;;2.55;2.33;;;27.00;27.20;;;;;;5118783;28;20032;-39
2022/04/24 08:42:24;;;;;;;2.90;2.40;;;27.00;27.10;;;;;;5117306;28;20079;-39
2022/04/24 08:44:56;;;;;;;2.67;2.47;;;27.00;27.10;;;;;;5117006;28;20102;-40
2022/04/24 08:47:22;;;;;;;2.80;2.60;;;27.10;27.10;;;;;;5117435;27;20476;-40
2022/04/24 08:49:48;;;;;;;2.83;2.50;;;27.20;27.10;;;;;;5117215;28;20039;-41
2022/04/24 08:52:14;;;;;;;2.97;2.67;;;27.10;27.10;;;;;;5115981;28;20108;-39
2022/04/24 08:54:41;;;;;;;2.72;2.53;;;27.10;27.10;;;;;;5115577;28;20031;-40
2022/04/24 08:57:10;;;;;;;2.70;2.50;;;27.20;27.10;;;;;;5116848;28;20496;-40
2022/04/24 08:59:38;;;;;;;2.80;2.60;;;27.20;27.10;;;;;;5097689;28;20510;-48
2022/04/24 09:02:05;;;;;;;2.50;2.30;;;27.20;27.00;;;;;;5116545;28;20081;-48
2022/04/24 09:04:35;;;;;;;3.03;2.72;;;27.20;27.10;;;;;;5116956;28;20031;-43
2022/04/24 09:07:03;;;;;;;2.60;2.30;;;27.20;27.00;;;;;;5115451;28;20034;-45
2022/04/24 09:09:29;;;;;;;2.70;2.50;;;27.20;27.10;;;;;;5116409;28;20082;-45
2022/04/24 09:12:15;;;;;;;3.08;2.78;;;27.30;27.10;;;;;;5115409;28;20023;-45
2022/04/24 09:14:47;;;;;;;3.05;2.70;;;27.30;27.00;;;;;;5116662;28;20069;-49
2022/04/24 09:17:20;;;;;;;2.78;2.58;;;27.30;27.00;;;;;;5117047;28;20473;-42
2022/04/24 09:19:46;;;;;;;3.00;2.50;;;27.30;27.00;;;;;;5116908;28;20466;-43
2022/04/24 09:22:13;;;;;;;2.42;2.22;;;27.30;27.10;;;;;;5116284;28;20040;-48
2022/04/24 09:24:49;;;;;;;2.75;2.55;;;27.30;27.10;;;;;;5115624;28;20481;-45
2022/04/24 09:27:25;;;;;;;2.92;2.63;;;27.30;27.10;;;;;;5116288;28;20028;-50
2022/04/24 09:29:56;;;;;;;2.58;2.38;;;27.30;27.10;;;;;;5116298;28;20015;-45
2022/04/24 09:32:26;;;;;;;2.53;2.33;;;27.30;27.10;;;;;;5116658;28;20027;-47
2022/04/24 09:34:52;;;;;;;2.65;2.45;;;27.30;27.10;;;;;;5116190;28;20016;-48
2022/04/24 09:37:18;;;;;;;2.60;2.40;;;27.30;27.10;;;;;;5114932;28;20141;-45
2022/04/24 09:39:45;;;;;;;3.92;2.70;;;27.30;27.10;;;;;;5115651;28;20016;-40
2022/04/24 09:42:15;;;;;;;2.80;2.50;;;27.30;27.20;;;;;;5115285;28;20504;-40
2022/04/24 09:44:48;;;;;;;2.75;2.53;;;27.30;27.20;;;;;;5116433;28;20016;-42
2022/04/24 09:47:17;;;;;;;2.60;2.40;;;27.30;27.10;;;;;;5117284;28;20354;-41
2022/04/24 09:49:46;;;;;;;2.72;2.45;;;27.30;27.10;;;;;;5116351;28;20023;-41
2022/04/24 09:52:17;;;;;;;2.80;2.50;;;27.30;27.20;;;;;;5116026;28;20035;-40
2022/04/24 09:54:44;;;;;;;2.60;2.40;;;27.30;27.20;;;;;;5114323;28;20062;-39
2022/04/24 09:57:10;;;;;;;2.88;2.58;;;27.30;27.20;;;;;;5115606;28;20016;-41
2022/04/24 09:59:37;;;;;;;2.95;2.65;;;27.30;27.20;;;;;;5114769;28;20040;-40
2022/04/24 10:02:04;;;;;;;3.05;2.65;;;27.30;27.20;;;;;;5115071;28;20034;-42
2022/04/24 10:04:35;;;;;;;2.50;2.30;;;27.20;27.20;;;;;;5114446;28;20012;-40
2022/04/24 10:07:04;;;;;;;2.88;2.35;;;27.20;27.30;;;;;;5113873;28;20007;-39
2022/04/24 10:09:35;;;;;;;2.60;2.40;;;27.20;27.30;;;;;;5114968;28;20008;-41
2022/04/24 10:12:05;;;;;;;3.00;2.60;;;27.20;27.30;;;;;;5114084;28;20012;-40
2022/04/24 10:14:32;;;;;;;2.88;2.38;;;27.10;27.40;;;;;;5113872;28;20071;-40
2022/04/24 10:17:29;;;;;;;2.80;2.53;;;27.10;27.40;;;;;;5114948;28;20019;-39
2022/04/24 10:20:23;;;;;;;3.00;2.70;;;27.00;27.40;;;;;;5116551;27;20034;-40
2022/04/24 10:22:50;;;;;;;2.50;2.30;;;27.00;27.40;;;;;;5155810;27;20058;-40
2022/04/24 10:25:16;;;;;;;2.45;2.25;;;27.00;27.50;;;;;;5137292;27;20027;-41
2022/04/24 10:27:46;;;;;;;2.50;2.30;;;27.00;27.50;;;;;;5138660;27;20479;-39
2022/04/24 10:30:22;;;;;;;2.58;2.38;;;27.00;27.50;;;;;;5155766;27;20148;-40
2022/04/24 10:32:48;;;;;;;2.65;2.42;;;26.90;27.50;;;;;;5155170;27;20014;-41
2022/04/24 10:35:18;;;;;;;2.53;2.28;;;26.90;27.50;;;;;;5155377;27;20023;-40
2022/04/24 10:37:44;;;;;;;2.60;2.40;;;26.90;27.60;;;;;;5136815;27;20070;-40
2022/04/24 10:40:20;;;;;;;2.53;2.33;;;26.90;27.60;;;;;;5154679;27;20019;-39
2022/04/24 10:42:46;;;;;;;2.50;2.30;;;26.80;27.60;;;;;;5154728;27;20101;-39
2022/04/24 10:45:19;;;;;;;2.85;2.30;;;26.80;28.10;;;;;;5154534;27;20015;-39
2022/04/24 10:47:55;;;;;;;2.72;2.45;;;26.70;27.70;;;;;;5154649;27;20015;-39
2022/04/24 10:50:22;;;;;;;3.58;2.50;;;26.70;27.70;;;;;;5154502;27;20007;-39
2022/04/24 10:52:54;;;;;;;2.40;2.15;;;26.60;27.80;;;;;;5154749;27;20387;-41
2022/04/24 10:55:25;;;;;;;2.78;2.58;;;26.60;27.80;;;;;;5154424;27;20019;-42
2022/04/24 10:58:00;;;;;;;3.22;2.50;;;26.50;27.80;;;;;;5154585;27;20022;-40
2022/04/24 11:00:34;;;;;;;2.67;2.45;;;26.50;27.80;;;;;;5154795;27;20046;-40
2022/04/24 11:03:11;;;;;;;3.13;2.30;;;26.50;27.90;;;;;;5154263;27;20111;-39
2022/04/24 11:05:39;;;;;;;2.95;2.50;;;26.40;27.90;;;;;;5137053;27;20007;-39
2022/04/24 11:08:05;;;;;;;2.83;2.50;;;26.40;27.90;;;;;;5136386;27;20095;-40
2022/04/24 11:10:42;;;;;;;2.67;2.45;;;26.30;27.90;;;;;;5154826;27;20011;-39
2022/04/24 11:13:16;;;;;;;4.47;2.70;;;26.30;28.00;;;;;;5154809;27;20468;-39
2022/04/24 11:15:53;;;;;;;3.05;2.80;;;26.20;27.90;;;;;;5154715;27;20021;-39
2022/04/24 11:18:26;;;;;;;2.72;2.47;;;26.20;27.90;;;;;;5154623;27;20031;-39
2022/04/24 11:20:56;;;;;;;3.13;2.70;;;26.20;28.00;;;;;;5154419;27;20039;-45
2022/04/24 11:23:25;;;;;;;3.00;2.60;;;26.20;28.00;;;;;;5154620;27;20081;-44
2022/04/24 11:25:54;;;;;;;2.80;2.50;;;26.10;28.10;;;;;;5139949;27;20018;-42
2022/04/24 11:28:20;;;;;;;3.22;2.70;;;26.00;28.10;;;;;;5156806;27;20064;-44
2022/04/24 11:30:46;;;;;;;2.53;2.33;;;26.00;28.10;;;;;;5157098;27;20015;-45
2022/04/24 11:33:12;;;;;;;2.85;2.42;;;25.90;28.20;;;;;;5138211;27;20011;-43
2022/04/24 11:35:39;;;;;;;2.60;2.40;;;25.80;28.20;;;;;;5156925;27;20029;-51
2022/04/24 11:38:09;;;;;;;2.95;2.47;;;25.80;28.20;;;;;;5160102;27;20022;-44
2022/04/24 11:40:43;;;;;;;2.95;2.65;;;25.80;28.20;;;;;;5160552;27;20018;-40
2022/04/24 11:43:09;;;;;;;3.53;2.60;;;25.70;28.20;;;;;;5160101;27;20079;-42
2022/04/24 11:51:13;;;;;;;2.60;2.40;;;25.70;28.30;;;;;;5159719;27;20022;-40
2022/04/24 11:53:40;;;;;;;2.90;2.67;;;25.60;28.40;;;;;;5159419;27;20496;-40
2022/04/24 11:56:05;;;;;;;2.50;2.30;;;25.60;28.40;;;;;;5143696;27;20015;-46
2022/04/24 11:58:38;;;;;;;3.03;2.60;;;25.50;28.40;;;;;;5125615;27;20038;-48
2022/04/24 12:01:07;;;;;;;2.72;2.53;;;25.40;28.40;;;;;;5161987;27;20101;-45
2022/04/24 12:03:33;;;;;;;3.20;2.60;;;25.40;28.40;;;;;;5164250;27;20023;-47
2022/04/24 12:06:00;;;;;;;2.88;2.60;;;25.30;28.40;;;;;;5162641;27;20014;-46
2022/04/24 12:08:38;;;;;;;2.55;2.35;;;25.30;28.50;;;;;;5163473;27;20062;-42
2022/04/24 12:11:04;;;;;;;2.92;2.42;;;25.30;28.50;;;;;;5164306;27;20037;-49
2022/04/24 12:13:32;;;;;;;2.85;2.58;;;25.20;28.50;;;;;;5146725;27;20015;-49
2022/04/24 12:15:58;;;;;;;3.58;2.78;;;25.20;28.60;;;;;;5163824;27;20035;-46
2022/04/24 12:18:24;;;;;;;2.55;2.35;;;25.20;28.60;;;;;;5164069;27;20067;-46
2022/04/24 12:20:51;;;;;;;2.90;2.63;;;25.10;28.50;;;;;;5161739;27;20047;-47
2022/04/24 12:23:18;;;;;;;2.75;2.50;;;25.10;28.60;;;;;;5161812;27;20074;-44
2022/04/24 12:25:56;;;;;;;4.10;2.72;;;25.10;28.60;;;;;;5159299;27;20480;-41
2022/04/24 12:28:37;;;;;;;2.90;2.58;;;25.00;28.60;;;;;;5158599;27;20017;-41
2022/04/24 12:31:03;;;;;;;;;;;25.00;28.60;;;;;;5158684;27;20483;-41
2022/04/24 12:33:30;;;;;;;2.97;2.50;;;25.00;28.70;;;;;;5158227;27;19906;-47
2022/04/24 12:36:09;;;;;;;2.90;2.60;;;25.00;28.70;;;;;;5157812;27;20022;-44
2022/04/24 12:38:35;;;;;;;3.08;2.50;;;25.00;28.60;;;;;;5157819;27;20042;-41
2022/04/24 12:41:01;;;;;;;2.75;2.50;;;25.00;28.60;;;;;;5157718;27;20010;-42
2022/04/24 12:43:30;;;;;;;2.70;2.47;;;24.90;28.60;;;;;;5158237;27;20042;-41
2022/04/24 12:45:56;;;;;;;3.88;2.75;;;25.00;28.70;;;;;;5158110;27;20026;-41
2022/04/24 12:48:24;;;;;;;2.83;2.50;;;24.90;28.70;;;;;;5157416;27;20011;-41
2022/04/24 12:50:51;;;;;;;2.70;2.50;;;24.90;28.70;;;;;;5158235;27;20019;-43
2022/04/24 12:53:18;;;;;;;3.45;2.47;;;24.90;28.80;;;;;;5158245;27;20106;-43
2022/04/24 12:55:45;;;;;;;3.05;2.70;;;24.90;28.70;;;;;;5159569;27;20011;-41